Terminal Aerodrome Forecast
Issued by NWS Charleston, WV

Current Version | Previous Version | Text Only | Print | Product List | Glossary Off
Versions: 1 2 3 4 5 6 7 8 9 10 11 12 13 14 15 16 17 18 19 20 21 22 23 24

000
FTUS41 KRLX 280832 AAA
TAFEKN
TAF AMD
KEKN 280832Z 2809/2906 00000KT 5SM BR SCT008
     FM281000 00000KT 1/4SM FG VV001
     FM281200 00000KT 4SM BR SCT015
     FM281500 00000KT 6SM HZ SCT025
     FM281600 00000KT P6SM SCT035
     FM290200 00000KT 4SM BR SCT035=

USA.gov is the U.S. government's official web portal to all federal, state and local government web resources and services.